Terminal Aerodrome Forecast
Issued by NWS

Home | Current Version | Previous Version | Text Only | Print | Product List | Glossary On
Versions: 1 2 3 4 5 6 7 8 9 10 11 12 13 14 15 16 17
128
FTUS42 KMHX 250026 AAA
TAFISO
TAF AMD
KISO 250026Z 2500/2524 11005KT P6SM BKN015 BKN020 OVC050
     FM250500 VRB04KT 2SM BR SCT007
     FM251100 VRB03KT P6SM BKN015
     FM251500 21010KT P6SM BKN015
     FM251700 23010KT P6SM BKN040
     FM252100 27010KT P6SM BKN050
      AMD LTD TO CLD VIS AND WIND=

USA.gov is the U.S. government's official web portal to all federal, state and local government web resources and services.